createdAt,value
2018-07-25T00:00:36.885Z,21.83
2018-07-25T00:01:36.232Z,21.90
2018-07-25T00:02:36.335Z,21.82
2018-07-25T00:03:36.439Z,21.76
2018-07-25T00:04:36.537Z,21.76
2018-07-25T00:05:36.636Z,21.78
2018-07-25T00:06:36.740Z,21.78
2018-07-25T00:07:36.842Z,21.67
2018-07-25T00:08:36.943Z,21.67
2018-07-25T00:09:37.077Z,21.67
2018-07-25T00:10:37.166Z,21.63
2018-07-25T00:11:37.266Z,21.51
2018-07-25T00:12:37.366Z,21.44
2018-07-25T00:13:37.468Z,21.50
2018-07-25T00:14:37.571Z,21.41
2018-07-25T00:15:37.671Z,21.24
2018-07-25T00:16:37.768Z,21.32
2018-07-25T00:17:37.870Z,21.34
2018-07-25T00:18:37.968Z,21.21
2018-07-25T00:19:38.068Z,21.27
2018-07-25T00:20:38.166Z,21.35
2018-07-25T00:21:38.268Z,21.36
2018-07-25T00:22:38.371Z,21.41
2018-07-25T00:23:38.473Z,21.34
2018-07-25T00:24:38.571Z,21.36
2018-07-25T00:25:38.673Z,21.38
2018-07-25T00:26:38.779Z,21.32
2018-07-25T00:27:38.881Z,21.35
2018-07-25T00:28:38.984Z,21.35
2018-07-25T00:29:39.083Z,21.35
2018-07-25T00:30:39.183Z,21.29
2018-07-25T00:31:39.274Z,21.30
2018-07-25T00:32:39.385Z,21.29
2018-07-25T00:33:39.486Z,21.32
2018-07-25T00:34:39.589Z,21.38
2018-07-25T00:35:39.692Z,21.34
2018-07-25T00:36:39.789Z,21.29
2018-07-25T00:37:39.891Z,21.35
2018-07-25T00:38:39.996Z,21.36
2018-07-25T00:39:40.094Z,21.24
2018-07-25T00:40:40.194Z,21.36
2018-07-25T00:41:40.295Z,21.26
2018-07-25T00:42:40.396Z,21.30
2018-07-25T00:43:40.497Z,21.23
2018-07-25T00:44:40.597Z,21.30
2018-07-25T00:45:40.698Z,21.16
2018-07-25T00:46:40.802Z,21.17
2018-07-25T00:47:40.903Z,21.14
2018-07-25T00:48:41.001Z,21.09
2018-07-25T00:49:41.102Z,21.09
2018-07-25T00:50:41.210Z,21.16
2018-07-25T00:51:41.308Z,21.08
2018-07-25T00:52:41.411Z,21.06
2018-07-25T00:53:41.511Z,21.08
2018-07-25T00:54:41.614Z,21.09
2018-07-25T00:55:41.717Z,21.08
2018-07-25T00:56:41.817Z,20.98
2018-07-25T00:57:41.923Z,20.99
2018-07-25T00:58:42.023Z,20.96
2018-07-25T00:59:42.124Z,20.98
2018-07-25T01:00:42.224Z,20.98
2018-07-25T01:01:42.321Z,20.95
2018-07-25T01:02:42.419Z,21.01
2018-07-25T01:03:42.518Z,21.02
2018-07-25T01:04:42.624Z,20.96
2018-07-25T01:05:42.731Z,21.01
2018-07-25T01:06:42.825Z,20.99
2018-07-25T01:07:42.917Z,20.95
2018-07-25T01:08:43.017Z,20.91
2018-07-25T01:09:43.115Z,20.99
2018-07-25T01:10:43.250Z,21.01
2018-07-25T01:11:43.352Z,20.98
2018-07-25T01:12:43.457Z,20.87
2018-07-25T01:13:43.556Z,20.96
2018-07-25T01:14:43.660Z,20.87
2018-07-25T01:15:43.758Z,20.89
2018-07-25T01:16:43.875Z,21.01
2018-07-25T01:17:44.005Z,20.83
2018-07-25T01:18:44.066Z,20.90
2018-07-25T01:19:44.152Z,20.87
2018-07-25T01:20:44.310Z,20.84
2018-07-25T01:21:44.303Z,20.84
2018-07-25T01:22:44.406Z,20.80
2018-07-25T01:23:44.517Z,20.77
2018-07-25T01:24:44.620Z,20.76
2018-07-25T01:25:44.711Z,20.83
2018-07-25T01:26:44.832Z,20.68
2018-07-25T01:27:44.933Z,20.72
2018-07-25T01:28:45.032Z,20.76
2018-07-25T01:29:45.147Z,20.81
2018-07-25T01:30:45.250Z,20.71
2018-07-25T01:31:45.347Z,20.66
2018-07-25T01:32:45.482Z,20.72
2018-07-25T01:33:45.587Z,20.76
2018-07-25T01:34:45.690Z,20.66
2018-07-25T01:35:45.785Z,20.65
2018-07-25T01:36:45.897Z,20.72
2018-07-25T01:37:45.994Z,20.64
2018-07-25T01:38:46.099Z,20.68
2018-07-25T01:39:46.188Z,20.62
2018-07-25T01:40:46.293Z,20.65
2018-07-25T01:41:46.393Z,20.58
2018-07-25T01:42:46.495Z,20.56
2018-07-25T01:43:46.591Z,20.59
2018-07-25T01:44:46.687Z,20.56
2018-07-25T01:45:46.785Z,20.68
2018-07-25T01:46:46.884Z,20.54
2018-07-25T01:47:46.995Z,20.58
2018-07-25T01:48:47.095Z,20.56
2018-07-25T01:49:47.190Z,20.58
2018-07-25T01:50:47.295Z,20.62
2018-07-25T01:51:47.399Z,20.54
2018-07-25T01:52:47.501Z,20.51
2018-07-25T01:53:47.616Z,20.47
2018-07-25T01:54:47.724Z,20.51
2018-07-25T01:55:47.817Z,20.41
2018-07-25T01:56:47.924Z,20.56
2018-07-25T01:57:48.029Z,20.54
2018-07-25T01:58:48.118Z,20.54
2018-07-25T01:59:48.216Z,20.54
2018-07-25T02:00:48.329Z,20.62
2018-07-25T02:01:48.424Z,20.62
2018-07-25T02:02:48.519Z,20.53
2018-07-25T02:03:48.624Z,20.59
2018-07-25T02:04:48.727Z,20.56
2018-07-25T02:05:48.827Z,20.56
2018-07-25T02:06:48.944Z,20.59
2018-07-25T02:07:49.048Z,20.51
2018-07-25T02:08:49.148Z,20.59
2018-07-25T02:09:49.252Z,20.54
2018-07-25T02:10:49.353Z,20.49
2018-07-25T02:11:49.447Z,20.46
2018-07-25T02:12:49.538Z,20.49
2018-07-25T02:13:49.638Z,20.51
2018-07-25T02:14:49.772Z,20.53
2018-07-25T02:15:49.868Z,20.51
2018-07-25T02:16:49.967Z,20.58
2018-07-25T02:17:50.068Z,20.46
2018-07-25T02:18:50.173Z,20.41
2018-07-25T02:19:50.295Z,20.31
2018-07-25T02:20:50.387Z,20.38
2018-07-25T02:21:50.515Z,20.42
2018-07-25T02:22:50.616Z,20.42
2018-07-25T02:23:50.698Z,20.38
2018-07-25T02:24:50.803Z,20.34
2018-07-25T02:25:50.901Z,20.33
2018-07-25T02:26:51.002Z,20.31
2018-07-25T02:27:51.103Z,20.35
2018-07-25T02:28:51.193Z,20.43
2018-07-25T02:29:51.293Z,20.34
2018-07-25T02:30:51.390Z,20.33
2018-07-25T02:31:51.496Z,20.28
2018-07-25T02:32:51.596Z,20.23
2018-07-25T02:33:51.692Z,20.27
2018-07-25T02:34:51.788Z,20.27
2018-07-25T02:35:51.958Z,20.30
2018-07-25T02:36:51.931Z,20.30
2018-07-25T02:37:52.034Z,20.25
2018-07-25T02:38:52.131Z,20.24
2018-07-25T02:39:52.228Z,20.15
2018-07-25T02:40:52.338Z,20.23
2018-07-25T02:41:52.444Z,20.20
2018-07-25T02:42:52.535Z,20.15
2018-07-25T02:43:52.682Z,20.08
2018-07-25T02:44:52.723Z,20.09
2018-07-25T02:45:52.844Z,20.12
2018-07-25T02:46:52.939Z,20.09
2018-07-25T02:47:53.042Z,19.98
2018-07-25T02:48:53.144Z,19.98
2018-07-25T02:49:53.245Z,20.03
2018-07-25T02:50:53.343Z,19.97
2018-07-25T02:51:53.445Z,20.00
2018-07-25T02:52:53.543Z,19.97
2018-07-25T02:53:53.646Z,19.93
2018-07-25T02:54:53.744Z,19.94
2018-07-25T02:55:53.844Z,20.00
2018-07-25T02:56:53.968Z,19.88
2018-07-25T02:57:54.046Z,19.80
2018-07-25T02:58:54.144Z,19.79
2018-07-25T02:59:54.246Z,19.86
2018-07-25T03:00:54.345Z,19.88
2018-07-25T03:01:54.450Z,19.93
2018-07-25T03:02:54.553Z,19.78
2018-07-25T03:03:54.651Z,19.88
2018-07-25T03:04:54.767Z,19.80
2018-07-25T03:05:54.862Z,19.78
2018-07-25T03:06:54.961Z,19.87
2018-07-25T03:07:55.059Z,19.80
2018-07-25T03:08:55.163Z,19.76
2018-07-25T03:09:55.259Z,19.78
2018-07-25T03:10:55.358Z,19.70
2018-07-25T03:11:55.460Z,19.78
2018-07-25T03:12:55.563Z,19.76
2018-07-25T03:13:55.663Z,19.76
2018-07-25T03:14:55.760Z,19.72
2018-07-25T03:15:55.860Z,19.75
2018-07-25T03:16:55.965Z,19.61
2018-07-25T03:17:56.069Z,19.66
2018-07-25T03:18:56.170Z,19.70
2018-07-25T03:19:56.265Z,19.69
2018-07-25T03:20:56.368Z,19.66
2018-07-25T03:21:56.470Z,19.75
2018-07-25T03:22:56.570Z,19.78
2018-07-25T03:23:56.667Z,19.78
2018-07-25T03:24:56.770Z,19.72
2018-07-25T03:25:56.867Z,19.75
2018-07-25T03:26:56.969Z,19.73
2018-07-25T03:27:57.068Z,19.76
2018-07-25T03:28:57.166Z,19.79
2018-07-25T03:29:57.267Z,19.80
2018-07-25T03:30:57.367Z,19.79
2018-07-25T03:31:57.465Z,19.76
2018-07-25T03:32:57.563Z,19.76
2018-07-25T03:33:57.664Z,19.73
2018-07-25T03:34:57.764Z,19.57
2018-07-25T03:35:57.864Z,19.70
2018-07-25T03:36:57.966Z,19.61
2018-07-25T03:37:58.068Z,19.70
2018-07-25T03:38:58.164Z,19.68
2018-07-25T03:39:58.263Z,19.60
2018-07-25T03:40:58.364Z,19.65
2018-07-25T03:41:58.462Z,19.69
2018-07-25T03:42:58.555Z,19.63
2018-07-25T03:43:58.657Z,19.69
2018-07-25T03:44:58.748Z,19.66
2018-07-25T03:45:58.850Z,19.66
2018-07-25T03:46:58.956Z,19.63
2018-07-25T03:47:59.052Z,19.70
2018-07-25T03:48:59.152Z,19.72
2018-07-25T03:49:59.251Z,19.57
2018-07-25T03:50:59.352Z,19.58
2018-07-25T03:51:59.447Z,19.60
2018-07-25T03:52:59.544Z,19.61
2018-07-25T03:53:59.647Z,19.63
2018-07-25T03:54:59.749Z,19.66
2018-07-25T03:55:59.849Z,19.68
2018-07-25T03:56:59.949Z,19.60
2018-07-25T03:58:00.050Z,19.63
2018-07-25T03:59:00.150Z,19.58
2018-07-25T04:00:00.251Z,19.63
2018-07-25T04:01:00.354Z,19.60
2018-07-25T04:02:00.504Z,19.63
2018-07-25T04:03:00.552Z,19.57
2018-07-25T04:04:00.654Z,19.57
2018-07-25T04:05:00.757Z,19.55
2018-07-25T04:06:00.856Z,19.57
2018-07-25T04:07:00.957Z,19.57
2018-07-25T04:08:01.057Z,19.55
2018-07-25T04:09:01.161Z,19.53
2018-07-25T04:10:01.255Z,19.54
2018-07-25T04:11:01.356Z,19.55
2018-07-25T04:12:01.468Z,19.57
2018-07-25T04:13:01.567Z,19.60
2018-07-25T04:14:01.669Z,19.55
2018-07-25T04:15:01.769Z,19.58
2018-07-25T04:16:01.868Z,19.54
2018-07-25T04:17:01.967Z,19.43
2018-07-25T04:18:02.069Z,19.46
2018-07-25T04:19:02.178Z,19.53
2018-07-25T04:20:02.282Z,19.47
2018-07-25T04:21:02.381Z,19.42
2018-07-25T04:22:02.482Z,19.43
2018-07-25T04:23:02.584Z,19.43
2018-07-25T04:24:02.684Z,19.57
2018-07-25T04:25:02.793Z,19.58
2018-07-25T04:26:02.890Z,19.53
2018-07-25T04:27:02.990Z,19.50
2018-07-25T04:28:03.085Z,19.61
2018-07-25T04:29:03.202Z,19.63
2018-07-25T04:30:03.286Z,19.68
2018-07-25T04:31:03.385Z,19.70
2018-07-25T04:32:03.488Z,19.69
2018-07-25T04:33:03.598Z,19.69
2018-07-25T04:34:03.704Z,19.75
2018-07-25T04:35:03.800Z,19.70
2018-07-25T04:36:03.902Z,19.73
2018-07-25T04:37:04.001Z,19.75
2018-07-25T04:38:04.101Z,19.76
2018-07-25T04:39:04.201Z,19.75
2018-07-25T04:40:04.310Z,19.80
2018-07-25T04:41:04.412Z,19.87
2018-07-25T04:42:04.515Z,19.83
2018-07-25T04:43:04.618Z,19.83
2018-07-25T04:44:04.715Z,19.83
2018-07-25T04:45:04.818Z,19.83
2018-07-25T04:46:04.931Z,19.87
2018-07-25T04:47:05.025Z,19.98
2018-07-25T04:48:05.128Z,19.91
2018-07-25T04:49:05.225Z,19.88
2018-07-25T04:50:05.323Z,19.91
2018-07-25T04:51:05.424Z,19.97
2018-07-25T04:52:05.525Z,19.98
2018-07-25T04:53:05.636Z,19.98
2018-07-25T04:54:05.739Z,19.97
2018-07-25T04:55:05.836Z,20.03
2018-07-25T04:56:05.978Z,20.13
2018-07-25T04:57:06.040Z,20.10
2018-07-25T04:58:06.139Z,20.13
2018-07-25T04:59:06.238Z,20.09
2018-07-25T05:00:06.341Z,20.10
2018-07-25T05:01:06.449Z,20.18
2018-07-25T05:02:06.549Z,20.08
2018-07-25T05:03:06.651Z,19.97
2018-07-25T05:04:06.750Z,19.97
2018-07-25T05:05:06.854Z,19.95
2018-07-25T05:06:06.957Z,19.80
2018-07-25T05:07:07.119Z,19.86
2018-07-25T05:08:07.158Z,19.86
2018-07-25T05:09:07.261Z,19.93
2018-07-25T05:10:07.360Z,20.02
2018-07-25T05:11:07.462Z,20.08
2018-07-25T05:12:07.553Z,20.15
2018-07-25T05:13:07.649Z,20.10
2018-07-25T05:14:07.756Z,20.20
2018-07-25T05:15:07.871Z,20.25
2018-07-25T05:16:07.973Z,20.31
2018-07-25T05:17:08.069Z,20.33
2018-07-25T05:18:08.171Z,20.42
2018-07-25T05:19:08.273Z,20.53
2018-07-25T05:20:08.376Z,20.49
2018-07-25T05:21:08.480Z,20.53
2018-07-25T05:22:08.585Z,20.62
2018-07-25T05:23:08.715Z,20.58
2018-07-25T05:24:08.786Z,20.56
2018-07-25T05:25:08.887Z,20.77
2018-07-25T05:26:08.988Z,20.76
2018-07-25T05:27:09.089Z,20.81
2018-07-25T05:28:09.190Z,20.89
2018-07-25T05:29:09.296Z,20.76
2018-07-25T05:30:09.417Z,20.81
2018-07-25T05:31:09.496Z,20.84
2018-07-25T05:32:09.598Z,21.04
2018-07-25T05:33:09.705Z,21.04
2018-07-25T05:34:09.811Z,21.05
2018-07-25T05:35:09.908Z,21.08
2018-07-25T05:36:09.998Z,21.14
2018-07-25T05:37:10.113Z,21.21
2018-07-25T05:38:10.291Z,21.30
2018-07-25T05:39:10.317Z,21.27
2018-07-25T05:40:10.423Z,21.54
2018-07-25T05:41:10.526Z,21.90
2018-07-25T05:42:10.627Z,22.54
2018-07-25T05:43:10.727Z,23.02
2018-07-25T05:44:10.830Z,23.46
2018-07-25T05:45:10.935Z,23.89
2018-07-25T05:46:11.030Z,24.12
2018-07-25T05:47:11.133Z,24.44
2018-07-25T05:48:11.236Z,24.87
2018-07-25T05:49:11.341Z,25.16
2018-07-25T05:50:11.444Z,25.56
2018-07-25T05:51:11.554Z,25.74
2018-07-25T05:52:11.651Z,26.17
2018-07-25T05:53:11.755Z,26.47
2018-07-25T05:54:11.862Z,26.72
2018-07-25T05:55:11.964Z,27.04
2018-07-25T05:56:12.069Z,27.10
2018-07-25T05:57:12.177Z,27.19
2018-07-25T05:58:12.277Z,27.41
2018-07-25T05:59:12.373Z,27.50
2018-07-25T06:00:12.493Z,27.70
2018-07-25T06:01:13.423Z,27.98
2018-07-25T06:02:12.680Z,28.21
2018-07-25T06:03:12.898Z,28.33
2018-07-25T06:04:12.937Z,28.56
2018-07-25T06:05:13.048Z,28.17
2018-07-25T06:06:13.225Z,28.59
2018-07-25T06:07:13.286Z,28.68
2018-07-25T06:08:13.429Z,28.69
2018-07-25T06:09:13.566Z,28.90
2018-07-25T06:10:13.744Z,28.91
2018-07-25T06:11:13.837Z,29.13
2018-07-25T06:12:13.959Z,29.03
2018-07-25T06:13:14.148Z,29.10
2018-07-25T06:14:14.197Z,29.40
2018-07-25T06:15:14.297Z,29.56
2018-07-25T06:16:14.401Z,29.65
2018-07-25T06:17:14.528Z,29.66
2018-07-25T06:18:14.649Z,29.50
2018-07-25T06:19:14.745Z,29.41
2018-07-25T06:20:14.862Z,29.31
2018-07-25T06:21:14.958Z,29.33
2018-07-25T06:22:15.099Z,28.96
2018-07-25T06:23:15.249Z,29.00
2018-07-25T06:24:15.355Z,28.93
2018-07-25T06:25:15.504Z,28.81
2018-07-25T06:26:15.608Z,28.90
2018-07-25T06:27:15.730Z,28.75
2018-07-25T06:28:15.857Z,28.75
2018-07-25T06:29:15.990Z,28.80
2018-07-25T06:30:16.038Z,28.84
2018-07-25T06:31:16.259Z,28.97
2018-07-25T06:32:16.260Z,29.00
2018-07-25T06:33:16.363Z,29.00
2018-07-25T06:34:16.483Z,29.06
2018-07-25T06:35:16.593Z,29.13
2018-07-25T06:36:16.725Z,29.10
2018-07-25T06:37:16.897Z,29.04
2018-07-25T06:38:16.913Z,29.11
2018-07-25T06:39:17.015Z,29.11
2018-07-25T06:40:17.132Z,28.97
2018-07-25T06:41:17.245Z,29.13
2018-07-25T06:42:17.351Z,29.07
2018-07-25T06:43:17.505Z,29.01
2018-07-25T06:44:17.631Z,28.97
2018-07-25T06:45:17.783Z,28.90
2018-07-25T06:46:17.884Z,28.75
2018-07-25T06:47:18.078Z,28.68
2018-07-25T06:48:18.701Z,28.75
2018-07-25T06:49:18.218Z,28.59
2018-07-25T06:50:18.369Z,28.58
2018-07-25T06:51:18.508Z,28.77
2018-07-25T06:52:18.544Z,28.60
2018-07-25T06:53:18.644Z,28.66
2018-07-25T06:54:18.769Z,28.65
2018-07-25T06:55:18.960Z,28.62
2018-07-25T06:56:18.946Z,28.33
2018-07-25T06:57:19.101Z,28.35
2018-07-25T06:58:19.160Z,28.33
2018-07-25T06:59:19.278Z,28.33
2018-07-25T07:00:19.392Z,28.35
2018-07-25T07:01:19.500Z,28.46
2018-07-25T07:02:19.664Z,28.40
2018-07-25T07:03:19.770Z,28.46
2018-07-25T07:04:19.877Z,28.38
2018-07-25T07:05:19.990Z,28.38
2018-07-25T07:06:20.131Z,28.33
2018-07-25T07:07:20.245Z,28.47
2018-07-25T07:08:20.351Z,28.53
2018-07-25T07:09:20.440Z,28.54
2018-07-25T07:10:20.566Z,28.48
2018-07-25T07:11:20.734Z,28.56
2018-07-25T07:12:20.856Z,28.47
2018-07-25T07:13:20.961Z,28.46
2018-07-25T07:14:21.055Z,28.54
2018-07-25T07:15:21.178Z,28.58
2018-07-25T07:16:21.265Z,28.54
2018-07-25T07:17:21.399Z,28.62
2018-07-25T07:18:21.480Z,28.69
2018-07-25T07:19:21.599Z,28.68
2018-07-25T07:20:21.707Z,28.69
2018-07-25T07:21:21.820Z,28.72
2018-07-25T07:22:21.931Z,28.78
2018-07-25T07:23:22.034Z,28.88
2018-07-25T07:24:22.148Z,28.93
2018-07-25T07:25:22.249Z,28.97
2018-07-25T07:26:22.381Z,29.01
2018-07-25T07:27:22.483Z,29.07
2018-07-25T07:28:22.578Z,29.07
2018-07-25T07:29:22.708Z,29.03
2018-07-25T07:30:22.822Z,29.06
2018-07-25T07:31:22.964Z,29.16
2018-07-25T07:32:23.013Z,29.29
2018-07-25T07:33:23.121Z,29.35
2018-07-25T07:34:23.235Z,29.44
2018-07-25T07:35:44.208Z,29.41
2018-07-25T07:36:44.347Z,29.47
2018-07-25T07:37:44.506Z,29.55
2018-07-25T07:38:44.639Z,29.52
2018-07-25T07:39:44.652Z,29.43
2018-07-25T07:40:44.763Z,29.49
2018-07-25T07:41:44.936Z,29.59
2018-07-25T07:42:44.916Z,29.50
2018-07-25T07:43:45.036Z,29.55
2018-07-25T07:44:45.143Z,29.57
2018-07-25T07:45:45.253Z,29.57
2018-07-25T07:46:45.350Z,29.68
2018-07-25T07:47:45.536Z,29.74
2018-07-25T07:48:45.562Z,29.70
2018-07-25T07:49:45.655Z,29.75
2018-07-25T07:50:45.766Z,29.77
2018-07-25T07:51:45.853Z,29.90
2018-07-25T07:52:45.971Z,29.94
2018-07-25T07:53:46.102Z,29.90
2018-07-25T07:54:46.205Z,29.94
2018-07-25T07:55:46.314Z,29.74
2018-07-25T07:56:46.431Z,29.82
2018-07-25T07:57:46.543Z,29.89
2018-07-25T07:58:46.637Z,29.78
2018-07-25T07:59:46.749Z,29.81
2018-07-25T08:00:46.873Z,29.90
2018-07-25T08:01:47.000Z,29.94
2018-07-25T08:02:47.120Z,29.99
2018-07-25T08:03:47.241Z,30.00
2018-07-25T08:04:47.425Z,30.03
2018-07-25T08:05:47.434Z,30.00
2018-07-25T08:06:47.540Z,30.03
2018-07-25T08:07:47.654Z,29.82
2018-07-25T08:08:47.801Z,29.92
2018-07-25T08:09:47.912Z,29.97
2018-07-25T08:10:48.047Z,30.12
2018-07-25T08:11:48.130Z,30.09
2018-07-25T08:12:48.280Z,30.27
2018-07-25T08:13:48.408Z,30.34
2018-07-25T08:14:48.494Z,30.34
2018-07-25T08:15:48.628Z,30.34
2018-07-25T08:16:48.828Z,30.52
2018-07-25T08:17:48.833Z,30.36
2018-07-25T08:18:48.932Z,30.31
2018-07-25T08:19:49.113Z,30.38
2018-07-25T08:20:49.221Z,30.47
2018-07-25T08:21:49.274Z,30.50
2018-07-25T08:22:49.378Z,30.68
2018-07-25T08:23:49.484Z,30.65
2018-07-25T08:24:49.588Z,30.56
2018-07-25T08:25:50.439Z,30.69
2018-07-25T08:26:49.791Z,30.67
2018-07-25T08:27:49.899Z,30.68
2018-07-25T08:28:50.007Z,30.86
2018-07-25T08:29:50.107Z,30.93
2018-07-25T08:30:50.227Z,30.96
2018-07-25T08:31:50.339Z,30.98
2018-07-25T08:32:50.449Z,31.01
2018-07-25T08:33:50.548Z,31.09
2018-07-25T08:34:50.714Z,31.18
2018-07-25T08:35:50.764Z,31.28
2018-07-25T08:36:50.867Z,31.28
2018-07-25T08:37:50.979Z,31.40
2018-07-25T08:38:51.091Z,31.46
2018-07-25T08:39:51.197Z,31.45
2018-07-25T08:40:51.323Z,31.60
2018-07-25T08:41:51.431Z,31.54
2018-07-25T08:42:51.552Z,31.55
2018-07-25T08:43:51.659Z,31.60
2018-07-25T08:44:51.759Z,31.53
2018-07-25T08:45:51.871Z,31.57
2018-07-25T08:46:51.989Z,31.55
2018-07-25T08:47:52.095Z,31.65
2018-07-25T08:48:52.209Z,31.72
2018-07-25T08:49:52.318Z,31.67
2018-07-25T08:50:52.436Z,31.58
2018-07-25T08:51:52.534Z,31.54
2018-07-25T08:52:52.666Z,31.68
2018-07-25T08:53:52.760Z,31.57
2018-07-25T08:54:52.866Z,31.45
2018-07-25T08:55:52.970Z,31.48
2018-07-25T08:56:53.079Z,31.48
2018-07-25T08:57:53.238Z,31.46
2018-07-25T08:58:53.314Z,31.46
2018-07-25T08:59:53.432Z,31.40
2018-07-25T09:00:53.534Z,31.36
2018-07-25T09:01:53.762Z,31.60
2018-07-25T09:02:53.754Z,31.72
2018-07-25T09:03:53.865Z,31.67
2018-07-25T09:04:53.975Z,31.73
2018-07-25T09:05:54.097Z,31.98
2018-07-25T09:06:54.194Z,31.77
2018-07-25T09:07:54.297Z,31.91
2018-07-25T09:08:54.403Z,31.93
2018-07-25T09:09:54.537Z,31.99
2018-07-25T09:10:54.639Z,32.05
2018-07-25T09:11:54.753Z,32.15
2018-07-25T09:12:54.894Z,32.06
2018-07-25T09:13:54.960Z,32.10
2018-07-25T09:14:55.058Z,32.17
2018-07-25T09:15:55.180Z,32.27
2018-07-25T09:16:55.311Z,32.15
2018-07-25T09:17:55.387Z,32.37
2018-07-25T09:18:55.548Z,32.47
2018-07-25T09:19:55.755Z,32.58
2018-07-25T09:20:55.727Z,32.58
2018-07-25T09:21:55.831Z,32.66
2018-07-25T09:22:55.928Z,32.76
2018-07-25T09:23:56.044Z,32.77
2018-07-25T09:24:56.148Z,32.66
2018-07-25T09:25:56.254Z,32.71
2018-07-25T09:26:56.357Z,32.85
2018-07-25T09:27:56.466Z,32.88
2018-07-25T09:28:56.580Z,32.85
2018-07-25T09:29:56.680Z,32.80
2018-07-25T09:30:56.787Z,32.73
2018-07-25T09:31:56.893Z,32.76
2018-07-25T09:32:56.998Z,32.74
2018-07-25T09:33:57.138Z,32.64
2018-07-25T09:34:57.231Z,32.64
2018-07-25T09:35:57.337Z,32.69
2018-07-25T09:36:57.441Z,32.61
2018-07-25T09:37:57.548Z,32.51
2018-07-25T09:38:57.657Z,32.39
2018-07-25T09:39:57.767Z,32.40
2018-07-25T09:40:57.876Z,32.48
2018-07-25T09:41:57.970Z,32.48
2018-07-25T09:42:58.082Z,32.44
2018-07-25T09:43:58.208Z,32.47
2018-07-25T09:44:58.316Z,32.49
2018-07-25T09:45:58.427Z,32.44
2018-07-25T09:46:58.641Z,32.42
2018-07-25T09:47:58.642Z,32.44
2018-07-25T09:48:58.759Z,32.33
2018-07-25T09:49:58.849Z,32.24
2018-07-25T09:50:58.965Z,32.36
2018-07-25T09:51:59.075Z,32.39
2018-07-25T09:52:59.222Z,32.37
2018-07-25T09:53:59.291Z,32.47
2018-07-25T09:54:59.400Z,32.51
2018-07-25T09:55:59.534Z,32.59
2018-07-25T09:56:59.624Z,32.61
2018-07-25T09:57:59.740Z,32.66
2018-07-25T09:58:59.860Z,32.69
2018-07-25T09:59:59.972Z,32.70
2018-07-25T10:01:00.114Z,32.51
2018-07-25T10:02:00.166Z,32.55
2018-07-25T10:03:00.271Z,32.59
2018-07-25T10:04:00.384Z,32.58
2018-07-25T10:05:00.494Z,32.61
2018-07-25T10:06:00.604Z,32.57
2018-07-25T10:07:00.715Z,32.57
2018-07-25T10:08:00.821Z,32.49
2018-07-25T10:09:00.929Z,32.52
2018-07-25T10:10:01.046Z,32.55
2018-07-25T10:11:01.150Z,32.70
2018-07-25T10:12:01.266Z,32.54
2018-07-25T10:13:01.367Z,32.66
2018-07-25T10:14:01.475Z,32.69
2018-07-25T10:15:01.614Z,32.74
2018-07-25T10:16:01.699Z,32.88
2018-07-25T10:17:01.802Z,32.84
2018-07-25T10:18:01.912Z,32.88
2018-07-25T10:19:02.019Z,32.73
2018-07-25T10:20:02.129Z,32.85
2018-07-25T10:21:02.235Z,32.70
2018-07-25T10:22:02.343Z,32.91
2018-07-25T10:23:02.453Z,32.71
2018-07-25T10:24:02.580Z,32.52
2018-07-25T10:25:02.668Z,32.71
2018-07-25T10:26:02.777Z,32.58
2018-07-25T10:27:02.905Z,32.89
2018-07-25T10:28:02.997Z,32.95
2018-07-25T10:29:03.105Z,33.10
2018-07-25T10:30:03.217Z,33.19
2018-07-25T10:31:03.325Z,33.41
2018-07-25T10:32:03.433Z,33.48
2018-07-25T10:33:03.619Z,33.53
2018-07-25T10:34:03.650Z,33.46
2018-07-25T10:35:03.763Z,33.55
2018-07-25T10:36:03.869Z,33.55
2018-07-25T10:37:04.004Z,33.49
2018-07-25T10:38:04.106Z,33.48
2018-07-25T10:39:04.258Z,33.64
2018-07-25T10:40:04.311Z,33.87
2018-07-25T10:41:04.419Z,33.94
2018-07-25T10:42:04.551Z,34.05
2018-07-25T10:43:04.656Z,34.13
2018-07-25T10:44:04.769Z,34.05
2018-07-25T10:45:04.874Z,34.23
2018-07-25T10:46:04.984Z,34.29
2018-07-25T10:47:05.092Z,34.50
2018-07-25T10:48:05.203Z,34.48
2018-07-25T10:49:05.313Z,34.53
2018-07-25T10:50:05.423Z,34.58
2018-07-25T10:51:05.526Z,34.69
2018-07-25T10:52:05.638Z,34.73
2018-07-25T10:53:05.747Z,34.69
2018-07-25T10:54:05.843Z,34.63
2018-07-25T10:55:05.966Z,34.29
2018-07-25T10:56:06.080Z,34.36
2018-07-25T10:57:06.188Z,34.27
2018-07-25T10:58:06.298Z,34.44
2018-07-25T10:59:06.407Z,34.38
2018-07-25T11:00:06.517Z,34.46
2018-07-25T11:01:06.630Z,34.42
2018-07-25T11:02:06.780Z,34.45
2018-07-25T11:03:06.844Z,34.31
2018-07-25T11:04:06.953Z,34.35
2018-07-25T11:05:07.063Z,34.22
2018-07-25T11:06:07.171Z,34.29
2018-07-25T11:07:07.285Z,34.35
2018-07-25T11:08:07.388Z,34.39
2018-07-25T11:09:07.499Z,34.23
2018-07-25T11:10:07.609Z,34.32
2018-07-25T11:11:07.719Z,34.29
2018-07-25T11:12:07.825Z,34.45
2018-07-25T11:13:07.940Z,34.45
2018-07-25T11:14:08.040Z,34.41
2018-07-25T11:15:08.155Z,34.38
2018-07-25T11:16:08.261Z,34.27
2018-07-25T11:17:08.374Z,34.24
2018-07-25T11:18:08.479Z,34.44
2018-07-25T11:19:08.590Z,34.61
2018-07-25T11:20:08.698Z,34.56
2018-07-25T11:21:08.805Z,34.61
2018-07-25T11:22:08.918Z,34.66
2018-07-25T11:23:09.120Z,34.70
2018-07-25T11:24:09.190Z,34.60
2018-07-25T11:25:09.304Z,34.61
2018-07-25T11:26:09.415Z,34.58
2018-07-25T11:27:09.526Z,34.74
2018-07-25T11:28:09.644Z,34.80
2018-07-25T11:29:09.754Z,34.72
2018-07-25T11:30:09.866Z,34.80
2018-07-25T11:31:09.980Z,34.86
2018-07-25T11:32:10.086Z,35.08
2018-07-25T11:33:10.197Z,35.15
2018-07-25T11:34:10.313Z,35.21
2018-07-25T11:35:10.417Z,35.26
2018-07-25T11:36:10.528Z,35.37
2018-07-25T11:37:10.639Z,35.33
2018-07-25T11:38:10.808Z,35.39
2018-07-25T11:39:10.863Z,35.45
2018-07-25T11:40:10.973Z,35.57
2018-07-25T11:41:11.084Z,35.57
2018-07-25T11:42:11.193Z,35.57
2018-07-25T11:43:11.306Z,35.62
2018-07-25T11:44:11.416Z,35.33
2018-07-25T11:45:11.524Z,35.06
2018-07-25T11:46:11.634Z,34.86
2018-07-25T11:47:11.744Z,34.84
2018-07-25T11:48:11.854Z,34.73
2018-07-25T11:49:11.962Z,34.80
2018-07-25T11:50:12.104Z,34.88
2018-07-25T11:51:12.189Z,35.08
2018-07-25T11:52:12.300Z,35.14
2018-07-25T11:53:12.408Z,35.07
2018-07-25T11:54:12.526Z,35.20
2018-07-25T11:55:12.636Z,35.14
2018-07-25T11:56:12.752Z,35.23
2018-07-25T11:57:12.854Z,35.33
2018-07-25T11:58:12.963Z,35.06
2018-07-25T11:59:13.067Z,34.58
2018-07-25T12:00:13.179Z,34.42
2018-07-25T12:01:13.436Z,34.56
2018-07-25T12:02:13.406Z,34.79
2018-07-25T12:03:13.524Z,34.84
2018-07-25T12:04:13.624Z,34.84
2018-07-25T12:05:13.739Z,34.98
2018-07-25T12:06:13.841Z,34.94
2018-07-25T12:07:13.945Z,35.02
2018-07-25T12:08:14.058Z,35.07
2018-07-25T12:09:14.166Z,35.15
2018-07-25T12:10:14.275Z,35.28
2018-07-25T12:11:14.379Z,35.32
2018-07-25T12:12:14.483Z,35.39
2018-07-25T12:13:14.605Z,35.52
2018-07-25T12:14:14.725Z,35.57
2018-07-25T12:15:14.835Z,35.63
2018-07-25T12:16:14.943Z,35.58
2018-07-25T12:17:15.055Z,35.51
2018-07-25T12:18:15.157Z,35.52
2018-07-25T12:19:15.255Z,35.57
2018-07-25T12:20:15.364Z,35.57
2018-07-25T12:21:15.490Z,35.47
2018-07-25T12:22:15.598Z,35.17
2018-07-25T12:23:15.680Z,35.21
2018-07-25T12:24:15.774Z,35.32
2018-07-25T12:25:15.897Z,35.37
2018-07-25T12:28:07.664Z,35.55
2018-07-25T12:29:07.770Z,35.64
2018-07-25T12:30:07.883Z,35.84
2018-07-25T12:31:07.995Z,35.86
2018-07-25T12:32:08.115Z,35.99
2018-07-25T12:33:08.216Z,36.21
2018-07-25T12:34:08.326Z,36.23
2018-07-25T12:35:08.438Z,36.41
2018-07-25T12:36:08.545Z,36.45
2018-07-25T12:37:08.656Z,36.48
2018-07-25T12:38:08.770Z,36.63
2018-07-25T12:39:08.881Z,36.61
2018-07-25T12:40:08.992Z,36.56
2018-07-25T12:41:09.104Z,36.52
2018-07-25T12:42:09.217Z,36.39
2018-07-25T12:43:09.326Z,36.26
2018-07-25T12:44:09.438Z,36.04
2018-07-25T12:45:09.550Z,35.91
2018-07-25T12:46:09.660Z,35.73
2018-07-25T12:47:09.774Z,35.79
2018-07-25T12:48:09.886Z,35.77
2018-07-25T12:49:09.997Z,35.89
2018-07-25T12:50:10.113Z,35.88
2018-07-25T12:51:10.220Z,35.93
2018-07-25T12:52:10.332Z,35.91
2018-07-25T12:53:10.477Z,36.01
2018-07-25T12:54:10.630Z,36.14
2018-07-25T12:55:10.665Z,36.12
2018-07-25T12:56:10.776Z,36.23